Time;durP1;ratioP1;P1;durP2;ratioP2;P2;SDS_P1;SDS_P2;PMS_P1;PMS_P2;Temp;Humidity;BMP_temperature;BMP_pressure;BME280_temperature;BME280_humidity;BME280_pressure;Samples;Min_cycle;Max_cycle;Signal;HPM_P1;HPM_P2
2023/01/27 00:00:14;;;;;;;33.42;19.42;;;1.30;99.90;;;;;;5054422;28;20021;-72
2023/01/27 00:02:41;;;;;;;31.83;18.73;;;1.30;99.90;;;;;;5054463;28;20059;-73
2023/01/27 00:05:09;;;;;;;36.85;19.88;;;1.30;99.90;;;;;;5068882;28;20021;-73
2023/01/27 00:07:35;;;;;;;29.13;18.52;;;1.40;99.90;;;;;;5054211;28;20357;-74
2023/01/27 00:10:02;;;;;;;35.03;19.33;;;1.40;99.90;;;;;;5054108;28;20028;-73
2023/01/27 00:15:14;;;;;;;32.90;19.77;;;1.40;99.90;;;;;;5053831;28;20021;-72
2023/01/27 00:17:40;;;;;;;33.05;19.17;;;1.40;99.90;;;;;;5053953;28;21054;-72
2023/01/27 00:20:07;;;;;;;29.00;17.52;;;1.30;99.90;;;;;;5045194;28;20401;-72
2023/01/27 00:25:18;;;;;;;34.50;19.13;;;1.30;99.90;;;;;;5069773;28;20024;-71
2023/01/27 00:27:44;;;;;;;31.98;19.42;;;1.40;99.90;;;;;;5050971;28;20025;-72
2023/01/27 00:30:11;;;;;;;35.55;19.80;;;1.40;99.90;;;;;;5053941;28;20032;-71
2023/01/27 00:35:21;;;;;;;30.50;18.33;;;1.40;99.90;;;;;;5053987;28;20376;-72
2023/01/27 00:37:47;;;;;;;27.92;16.45;;;1.30;99.90;;;;;;5069230;28;20052;-72
2023/01/27 00:40:15;;;;;;;28.00;15.95;;;1.30;99.90;;;;;;5069486;28;20124;-71
2023/01/27 00:42:42;;;;;;;28.38;17.02;;;1.40;99.90;;;;;;5068999;28;20033;-71
2023/01/27 00:47:53;;;;;;;25.77;15.80;;;1.40;99.90;;;;;;5055028;28;20029;-72
2023/01/27 00:50:20;;;;;;;27.25;15.32;;;1.40;99.90;;;;;;5053729;28;20025;-72
2023/01/27 00:52:46;;;;;;;25.90;15.30;;;1.40;99.90;;;;;;5053527;28;20542;-71
2023/01/27 00:55:14;;;;;;;28.85;17.17;;;1.40;99.90;;;;;;5052550;28;20029;-71
2023/01/27 00:57:41;;;;;;;30.33;17.17;;;1.50;99.90;;;;;;5053068;28;20095;-71
2023/01/27 01:00:08;;;;;;;30.70;18.67;;;1.50;99.90;;;;;;5051969;28;20112;-72
2023/01/27 01:02:35;;;;;;;27.77;16.73;;;1.50;99.90;;;;;;5060303;28;20025;-73
2023/01/27 01:05:01;;;;;;;27.55;16.45;;;1.50;99.90;;;;;;5053504;28;20021;-72
2023/01/27 01:07:28;;;;;;;32.13;18.13;;;1.50;99.90;;;;;;5053496;28;20036;-73
2023/01/27 01:09:55;;;;;;;31.90;18.05;;;1.50;99.90;;;;;;5051799;28;20037;-71
2023/01/27 01:12:21;;;;;;;34.40;19.20;;;1.50;99.90;;;;;;5049498;28;20202;-71
2023/01/27 01:14:49;;;;;;;38.67;21.77;;;1.50;99.90;;;;;;5053052;28;20784;-70
2023/01/27 01:17:15;;;;;;;40.33;22.17;;;1.50;99.90;;;;;;5053051;28;20416;-71
2023/01/27 01:19:41;;;;;;;44.33;28.20;;;1.50;99.90;;;;;;5047109;28;20051;-71
2023/01/27 01:22:07;;;;;;;36.83;22.10;;;1.50;99.90;;;;;;5046822;28;20054;-71
2023/01/27 01:24:33;;;;;;;37.53;22.23;;;1.50;99.90;;;;;;5068502;28;20388;-71
2023/01/27 01:26:59;;;;;;;29.83;16.20;;;1.60;99.90;;;;;;5055724;28;20028;-71
2023/01/27 01:29:25;;;;;;;30.63;15.55;;;1.50;99.90;;;;;;5050115;28;20480;-71
2023/01/27 01:31:51;;;;;;;22.92;13.68;;;1.60;99.90;;;;;;5067790;28;20127;-71
2023/01/27 01:34:17;;;;;;;30.77;19.65;;;1.60;99.90;;;;;;5053199;28;20056;-71
2023/01/27 01:36:43;;;;;;;27.02;15.57;;;1.60;99.90;;;;;;5079327;28;20105;-72
2023/01/27 01:39:09;;;;;;;24.08;14.85;;;1.60;99.90;;;;;;5054441;28;20023;-71
2023/01/27 01:41:35;;;;;;;29.17;16.73;;;1.60;99.90;;;;;;5051650;28;20128;-70
2023/01/27 01:44:20;;;;;;;28.15;15.60;;;1.60;99.90;;;;;;5039077;28;20464;-73
2023/01/27 01:46:46;;;;;;;25.65;14.82;;;1.60;99.90;;;;;;5053052;28;20031;-71
2023/01/27 01:49:12;;;;;;;24.63;13.85;;;1.70;99.90;;;;;;5053741;28;20372;-71
2023/01/27 01:51:46;;;;;;;27.23;15.55;;;1.60;99.90;;;;;;5056145;28;20028;-71
2023/01/27 01:54:26;;;;;;;27.38;15.70;;;1.60;99.90;;;;;;5057868;28;20099;-72
2023/01/27 01:57:01;;;;;;;31.27;16.65;;;1.60;99.90;;;;;;5054047;28;20029;-74
2023/01/27 01:59:54;;;;;;;26.40;16.13;;;1.50;99.90;;;;;;5057261;28;20025;-72
2023/01/27 02:02:22;;;;;;;28.30;17.00;;;1.50;99.90;;;;;;5059585;28;20033;-73
2023/01/27 02:05:03;;;;;;;26.73;16.48;;;1.50;99.90;;;;;;5053680;28;20025;-71
2023/01/27 02:07:48;;;;;;;29.00;17.17;;;1.50;99.90;;;;;;5051408;28;20021;-72
2023/01/27 02:10:15;;;;;;;29.65;17.92;;;1.60;99.90;;;;;;5066359;28;20076;-73
2023/01/27 02:12:41;;;;;;;31.92;17.15;;;1.60;99.90;;;;;;5051220;28;20035;-72
2023/01/27 02:15:08;;;;;;;27.10;16.67;;;1.60;99.90;;;;;;5046410;28;20029;-71
2023/01/27 02:17:34;;;;;;;25.38;14.90;;;1.70;99.90;;;;;;5053576;28;20499;-71
2023/01/27 02:20:37;;;;;;;24.42;15.52;;;1.70;99.90;;;;;;5055677;28;20068;-71
2023/01/27 02:23:10;;;;;;;28.40;16.58;;;1.70;99.90;;;;;;5041052;28;20575;-71
2023/01/27 02:25:42;;;;;;;24.80;15.05;;;1.70;99.90;;;;;;5051708;28;20506;-71
2023/01/27 02:28:08;;;;;;;26.98;15.95;;;1.60;99.90;;;;;;5052469;28;20067;-71
2023/01/27 02:30:34;;;;;;;28.42;15.90;;;1.60;99.90;;;;;;5052561;28;20472;-72
2023/01/27 02:33:00;;;;;;;30.35;16.45;;;1.60;99.90;;;;;;5054176;28;20021;-72
2023/01/27 02:35:47;;;;;;;30.33;17.30;;;1.60;99.90;;;;;;5067640;28;20063;-71
2023/01/27 02:38:16;;;;;;;28.58;16.15;;;1.60;99.90;;;;;;5051316;28;20032;-71
2023/01/27 02:40:43;;;;;;;23.55;14.30;;;1.70;99.90;;;;;;5051629;28;20023;-72
2023/01/27 02:43:10;;;;;;;21.85;13.70;;;1.60;99.90;;;;;;5051849;28;20443;-71
2023/01/27 02:45:35;;;;;;;28.60;15.93;;;1.60;99.90;;;;;;5067316;28;20060;-72
2023/01/27 02:48:01;;;;;;;25.88;14.45;;;1.60;99.90;;;;;;5051684;28;20033;-72
2023/01/27 02:50:28;;;;;;;25.63;15.98;;;1.60;99.90;;;;;;5067031;28;20033;-72
2023/01/27 02:52:54;;;;;;;22.10;12.98;;;1.60;99.90;;;;;;5051852;28;20086;-72
2023/01/27 02:55:21;;;;;;;29.58;14.68;;;1.60;99.90;;;;;;5039137;28;20017;-72
2023/01/27 02:57:47;;;;;;;22.15;12.60;;;1.60;99.90;;;;;;5055093;28;20143;-71
2023/01/27 03:00:35;;;;;;;25.92;14.80;;;1.50;99.90;;;;;;5051046;28;20021;-72
2023/01/27 03:03:01;;;;;;;24.08;14.15;;;1.50;99.90;;;;;;5050327;28;20484;-74
2023/01/27 03:05:27;;;;;;;24.52;15.18;;;1.60;99.90;;;;;;5050007;28;20037;-73
2023/01/27 03:07:53;;;;;;;24.40;14.07;;;1.60;99.90;;;;;;5054542;28;20370;-72
2023/01/27 03:10:19;;;;;;;27.48;15.02;;;1.60;99.90;;;;;;5051445;28;20444;-72
2023/01/27 03:12:45;;;;;;;23.88;14.15;;;1.70;99.90;;;;;;5037499;28;20030;-73
2023/01/27 03:18:12;;;;;;;22.73;13.23;;;1.60;99.90;;;;;;5056309;28;20033;-70
2023/01/27 03:20:40;;;;;;;25.42;13.70;;;1.60;99.90;;;;;;5059683;28;20041;-70
2023/01/27 03:23:06;;;;;;;25.77;16.13;;;1.60;99.90;;;;;;5034625;28;20507;-71
2023/01/27 03:25:35;;;;;;;28.17;16.85;;;1.50;99.90;;;;;;5036012;28;20038;-71
2023/01/27 03:28:02;;;;;;;28.25;17.63;;;1.60;99.90;;;;;;5063986;28;20434;-70
2023/01/27 03:30:46;;;;;;;27.58;17.25;;;1.60;99.90;;;;;;5046928;28;20048;-71
2023/01/27 03:33:26;;;;;;;30.00;17.02;;;1.60;99.90;;;;;;5051353;28;20389;-71
2023/01/27 03:47:03;;;;;;;26.85;14.85;;;1.50;99.90;;;;;;5035904;28;20406;-71
2023/01/27 03:49:29;;;;;;;27.30;16.42;;;1.50;99.90;;;;;;5047464;28;20048;-71
2023/01/27 03:51:56;;;;;;;27.65;17.25;;;1.50;99.90;;;;;;5063697;28;20452;-71
2023/01/27 03:54:21;;;;;;;26.13;16.00;;;1.50;99.90;;;;;;5052471;28;20028;-72
2023/01/27 03:56:47;;;;;;;32.78;16.42;;;1.40;99.90;;;;;;5050867;28;20045;-71
2023/01/27 03:59:14;;;;;;;27.17;15.95;;;1.40;99.90;;;;;;5063062;28;20039;-71
2023/01/27 04:01:42;;;;;;;25.92;15.55;;;1.40;99.90;;;;;;5051623;28;20400;-71
2023/01/27 04:07:01;;;;;;;25.05;16.15;;;1.50;99.90;;;;;;5030960;28;20025;-72
2023/01/27 04:09:32;;;;;;;28.10;16.30;;;1.50;99.90;;;;;;5031104;28;20095;-71
2023/01/27 04:12:01;;;;;;;30.73;18.90;;;1.60;99.90;;;;;;5039646;28;20513;-72
2023/01/27 04:14:34;;;;;;;32.40;20.58;;;1.70;99.90;;;;;;5055443;28;20441;-72
2023/01/27 04:17:03;;;;;;;34.65;20.70;;;1.70;99.90;;;;;;5043633;28;20033;-71
2023/01/27 04:19:29;;;;;;;30.20;20.65;;;1.80;99.90;;;;;;5001133;28;1175075;-72
2023/01/27 04:21:56;;;;;;;30.38;19.63;;;1.80;99.90;;;;;;5051589;28;20036;-71
2023/01/27 04:24:23;;;;;;;30.20;18.08;;;1.80;99.90;;;;;;5053857;28;20075;-71
2023/01/27 04:26:53;;;;;;;29.70;16.85;;;1.80;99.90;;;;;;5053190;28;20025;-72
2023/01/27 04:29:20;;;;;;;25.13;14.45;;;1.80;99.90;;;;;;5052916;28;20037;-72
2023/01/27 04:31:46;;;;;;;25.67;14.60;;;1.80;99.90;;;;;;5051642;28;20220;-72
2023/01/27 04:34:12;;;;;;;22.30;13.07;;;1.80;99.90;;;;;;5049836;28;20134;-72
2023/01/27 04:36:39;;;;;;;23.77;13.60;;;1.80;99.90;;;;;;5050112;28;20022;-72
2023/01/27 04:39:06;;;;;;;22.23;12.82;;;1.80;99.90;;;;;;5050423;28;20088;-71
2023/01/27 04:41:32;;;;;;;21.52;13.07;;;1.70;99.90;;;;;;5050853;28;20025;-71
2023/01/27 04:43:58;;;;;;;23.70;13.52;;;1.70;99.90;;;;;;5049252;28;20107;-74
2023/01/27 04:46:24;;;;;;;23.08;13.77;;;1.70;99.90;;;;;;5051171;28;20092;-72
2023/01/27 04:48:50;;;;;;;22.00;12.43;;;1.70;99.90;;;;;;5049452;28;20025;-72
2023/01/27 04:51:16;;;;;;;22.80;13.75;;;1.80;99.90;;;;;;5050057;28;20541;-72
2023/01/27 04:53:42;;;;;;;25.38;16.27;;;1.80;99.90;;;;;;5050127;28;20048;-72
2023/01/27 04:56:20;;;;;;;34.53;19.60;;;1.80;99.90;;;;;;5047367;28;20040;-73
2023/01/27 04:58:46;;;;;;;36.28;21.80;;;1.70;99.90;;;;;;5043731;28;20396;-72
2023/01/27 05:01:12;;;;;;;43.47;23.77;;;1.80;99.90;;;;;;5043063;28;20013;-71
2023/01/27 05:03:37;;;;;;;55.97;29.35;;;1.70;99.90;;;;;;5045015;28;20599;-72
2023/01/27 05:06:03;;;;;;;81.45;39.95;;;1.70;99.90;;;;;;5051138;28;20029;-72
2023/01/27 05:08:29;;;;;;;95.78;50.55;;;1.70;99.90;;;;;;5053704;28;20021;-72
2023/01/27 05:10:55;;;;;;;102.25;53.63;;;1.70;99.90;;;;;;5053116;28;20037;-72
2023/01/27 05:13:21;;;;;;;79.65;47.30;;;1.60;99.90;;;;;;5052600;28;20025;-73
2023/01/27 05:15:47;;;;;;;82.45;50.53;;;1.60;99.90;;;;;;5053060;28;20025;-72
2023/01/27 05:18:13;;;;;;;72.05;46.97;;;1.60;99.90;;;;;;5051963;28;20124;-72
2023/01/27 05:20:39;;;;;;;68.47;43.85;;;1.60;99.90;;;;;;5044703;28;20037;-71
2023/01/27 05:23:50;;;;;;;48.65;32.33;;;1.50;99.90;;;;;;5047552;28;20029;-73
2023/01/27 05:25:51;;;;;;;62.30;40.75;;;1.50;99.90;;;;;;5041597;28;20059;-72
2023/01/27 05:28:16;;;;;;;38.03;26.75;;;1.40;99.90;;;;;;5053143;28;20025;-72
2023/01/27 05:30:42;;;;;;;42.03;29.00;;;1.40;99.90;;;;;;5050058;28;20036;-72
2023/01/27 05:33:09;;;;;;;38.10;25.50;;;1.40;99.90;;;;;;5045603;28;20090;-72
2023/01/27 05:35:35;;;;;;;38.53;25.08;;;1.40;99.90;;;;;;5052124;28;20033;-73
2023/01/27 05:38:01;;;;;;;34.47;22.27;;;1.40;99.90;;;;;;5052185;28;20033;-73
2023/01/27 05:40:27;;;;;;;35.25;22.42;;;1.40;99.90;;;;;;5052855;28;20077;-73
2023/01/27 05:42:53;;;;;;;34.85;23.40;;;1.40;99.90;;;;;;5052522;28;20552;-72
2023/01/27 05:45:19;;;;;;;35.25;23.23;;;1.40;99.90;;;;;;5052470;28;20021;-74
2023/01/27 05:47:51;;;;;;;32.22;21.92;;;1.40;99.90;;;;;;5052815;28;20495;-73
2023/01/27 05:50:17;;;;;;;33.92;20.17;;;1.30;99.90;;;;;;5052365;28;20070;-73
2023/01/27 05:52:43;;;;;;;27.70;16.55;;;1.40;99.90;;;;;;5052216;28;20055;-73
2023/01/27 05:55:09;;;;;;;29.33;18.38;;;1.40;99.90;;;;;;5051945;28;20028;-73
2023/01/27 05:57:35;;;;;;;28.70;18.75;;;1.30;99.90;;;;;;5052423;28;20044;-73
2023/01/27 06:00:01;;;;;;;30.17;17.77;;;1.30;99.90;;;;;;5052317;28;20013;-73
2023/01/27 06:02:27;;;;;;;27.05;17.45;;;1.30;99.90;;;;;;5052291;28;20457;-73
2023/01/27 06:04:53;;;;;;;34.92;20.35;;;1.30;99.90;;;;;;5065920;28;20503;-73
2023/01/27 06:07:19;;;;;;;29.55;18.30;;;1.30;99.90;;;;;;5052193;28;20024;-73
2023/01/27 06:09:44;;;;;;;26.92;16.58;;;1.30;99.90;;;;;;5051476;28;20025;-74
2023/01/27 06:12:10;;;;;;;28.58;17.63;;;1.30;99.90;;;;;;5052069;28;20241;-74
2023/01/27 06:14:36;;;;;;;25.98;16.52;;;1.30;99.90;;;;;;5052115;28;20021;-73
2023/01/27 06:17:02;;;;;;;27.35;17.83;;;1.30;99.90;;;;;;5052117;28;20037;-74
2023/01/27 06:19:28;;;;;;;29.73;16.83;;;1.30;99.90;;;;;;5051254;28;20446;-73
2023/01/27 06:21:53;;;;;;;30.25;18.58;;;1.30;99.90;;;;;;5052125;28;20380;-73
2023/01/27 06:24:19;;;;;;;31.40;18.80;;;1.40;99.90;;;;;;5051848;28;20024;-73
2023/01/27 06:26:45;;;;;;;31.73;19.67;;;1.30;99.90;;;;;;5052031;28;20369;-73
2023/01/27 06:29:11;;;;;;;29.52;19.33;;;1.30;99.90;;;;;;5051668;28;20021;-73
2023/01/27 06:31:37;;;;;;;29.05;18.60;;;1.40;99.90;;;;;;5051725;28;20037;-73
2023/01/27 06:34:03;;;;;;;27.88;18.60;;;1.40;99.90;;;;;;5051631;28;20092;-73
2023/01/27 06:36:29;;;;;;;32.42;19.02;;;1.30;99.90;;;;;;5051864;28;20487;-73
2023/01/27 06:38:54;;;;;;;32.63;20.92;;;1.30;99.90;;;;;;5051631;28;20024;-73
2023/01/27 06:41:20;;;;;;;34.45;21.70;;;1.30;99.90;;;;;;5051734;28;20025;-73
2023/01/27 06:43:46;;;;;;;33.63;20.70;;;1.30;99.90;;;;;;5049892;28;20479;-74
2023/01/27 06:46:13;;;;;;;34.60;21.35;;;1.30;99.90;;;;;;5051465;28;20055;-73
2023/01/27 06:48:39;;;;;;;40.08;25.20;;;1.30;99.90;;;;;;5051424;28;20017;-73
2023/01/27 06:51:05;;;;;;;41.38;25.38;;;1.30;99.90;;;;;;5051438;28;20037;-73
2023/01/27 06:53:33;;;;;;;40.50;24.60;;;1.40;99.90;;;;;;5051873;28;20381;-73
2023/01/27 06:56:00;;;;;;;38.58;24.50;;;1.40;99.90;;;;;;5050973;28;20029;-74
2023/01/27 06:58:26;;;;;;;36.78;22.58;;;1.30;99.90;;;;;;5051632;28;20119;-74
2023/01/27 07:00:52;;;;;;;35.80;23.20;;;1.40;99.90;;;;;;5065430;28;20017;-74
2023/01/27 07:03:19;;;;;;;31.55;19.80;;;1.40;99.90;;;;;;5066670;28;20052;-74
2023/01/27 07:05:45;;;;;;;35.22;21.35;;;1.50;99.90;;;;;;5042126;28;20476;-74
2023/01/27 07:08:11;;;;;;;32.28;21.00;;;1.50;99.90;;;;;;5051631;28;20031;-74
2023/01/27 07:10:37;;;;;;;34.35;19.23;;;1.50;99.90;;;;;;5051460;28;20072;-74
2023/01/27 07:13:12;;;;;;;36.95;21.58;;;1.40;99.90;;;;;;5051268;28;20112;-74
2023/01/27 07:15:38;;;;;;;35.17;21.85;;;1.50;99.90;;;;;;5051689;28;20025;-74
2023/01/27 07:18:04;;;;;;;31.35;19.92;;;1.50;99.90;;;;;;5051369;28;20059;-74
2023/01/27 07:20:31;;;;;;;33.67;18.85;;;1.40;99.90;;;;;;5051644;28;20056;-74
2023/01/27 07:23:08;;;;;;;32.55;21.13;;;1.60;99.90;;;;;;5051098;28;20242;-74
2023/01/27 07:25:34;;;;;;;38.53;22.30;;;1.60;99.90;;;;;;5051212;28;20070;-74
2023/01/27 07:28:01;;;;;;;39.83;25.80;;;1.60;99.90;;;;;;5051472;28;20135;-74
2023/01/27 07:30:27;;;;;;;42.85;27.92;;;1.50;99.90;;;;;;5051130;28;20025;-74
2023/01/27 07:32:54;;;;;;;50.53;33.67;;;1.60;99.90;;;;;;5051336;28;20025;-73
2023/01/27 07:35:21;;;;;;;43.92;30.38;;;1.60;99.90;;;;;;5050769;28;20032;-74
2023/01/27 07:37:47;;;;;;;50.28;35.00;;;1.70;99.90;;;;;;5051387;28;20160;-74
2023/01/27 07:40:13;;;;;;;57.83;39.60;;;1.70;99.90;;;;;;5051173;28;20035;-74
2023/01/27 07:42:39;;;;;;;62.08;40.90;;;1.80;99.90;;;;;;5055029;28;20465;-74
2023/01/27 07:45:06;;;;;;;59.83;39.00;;;1.80;99.90;;;;;;5054713;28;20039;-74
2023/01/27 07:47:32;;;;;;;43.80;28.35;;;1.90;99.90;;;;;;5054829;28;20115;-74
2023/01/27 07:49:58;;;;;;;47.15;28.88;;;1.80;99.90;;;;;;5054547;28;20116;-74
2023/01/27 07:52:23;;;;;;;44.75;27.35;;;1.90;99.90;;;;;;5055040;28;20029;-74
2023/01/27 07:54:49;;;;;;;39.78;25.60;;;2.00;99.90;;;;;;5054684;28;20060;-73
2023/01/27 07:57:15;;;;;;;41.88;26.27;;;2.00;99.90;;;;;;5054591;28;20049;-73
2023/01/27 07:59:41;;;;;;;43.17;27.40;;;2.00;99.90;;;;;;5054544;28;20071;-74
2023/01/27 08:02:09;;;;;;;42.53;27.42;;;2.10;99.90;;;;;;5054612;28;20021;-74
2023/01/27 08:04:34;;;;;;;38.55;26.08;;;2.00;99.90;;;;;;5054199;28;20013;-73
2023/01/27 08:07:00;;;;;;;40.75;26.75;;;2.10;99.90;;;;;;5054555;28;20028;-74
2023/01/27 08:09:26;;;;;;;40.78;25.60;;;2.20;99.90;;;;;;5054070;28;20495;-74
2023/01/27 08:11:52;;;;;;;44.38;30.13;;;2.20;99.90;;;;;;5054432;28;20027;-74
2023/01/27 08:14:18;;;;;;;45.03;29.45;;;2.10;99.90;;;;;;5054575;28;20037;-74
2023/01/27 08:16:43;;;;;;;43.63;27.65;;;2.10;99.90;;;;;;5053892;28;20021;-73
2023/01/27 08:19:10;;;;;;;41.60;26.20;;;2.10;99.90;;;;;;5054095;28;20053;-73
2023/01/27 08:21:36;;;;;;;43.83;27.83;;;2.00;99.90;;;;;;5054868;28;20036;-74
2023/01/27 08:24:02;;;;;;;48.22;30.33;;;2.00;99.90;;;;;;5053919;28;20025;-74
2023/01/27 08:26:28;;;;;;;44.15;31.20;;;2.10;99.90;;;;;;5067916;28;20094;-74
2023/01/27 08:28:54;;;;;;;51.22;32.10;;;2.10;99.90;;;;;;5053885;28;20060;-74
2023/01/27 08:31:21;;;;;;;63.30;39.40;;;2.10;99.90;;;;;;5052644;28;20035;-73
2023/01/27 08:33:51;;;;;;;62.22;40.28;;;2.20;99.90;;;;;;5053678;28;20032;-73
2023/01/27 08:36:20;;;;;;;50.88;34.67;;;2.20;99.90;;;;;;5054092;28;20025;-74
2023/01/27 08:38:48;;;;;;;40.45;26.75;;;2.30;99.90;;;;;;5053464;28;20072;-74
2023/01/27 08:41:17;;;;;;;50.05;31.98;;;2.20;99.90;;;;;;5054036;28;20021;-74
2023/01/27 08:43:43;;;;;;;40.25;25.08;;;2.20;99.90;;;;;;5053948;28;20056;-74
2023/01/27 08:46:10;;;;;;;38.28;21.73;;;2.20;99.90;;;;;;5053694;28;20029;-73
2023/01/27 08:48:36;;;;;;;28.20;17.17;;;2.30;99.90;;;;;;5052211;28;20456;-74
2023/01/27 08:51:04;;;;;;;25.33;15.77;;;2.30;99.90;;;;;;5043729;28;20044;-73
2023/01/27 08:53:30;;;;;;;30.38;20.15;;;2.20;99.90;;;;;;5049893;28;20476;-74
2023/01/27 08:55:58;;;;;;;31.42;20.05;;;2.30;99.90;;;;;;5053503;28;20473;-74
2023/01/27 08:58:24;;;;;;;25.58;16.02;;;2.30;99.90;;;;;;5053143;28;20037;-74
2023/01/27 09:00:50;;;;;;;33.40;20.38;;;2.40;99.90;;;;;;5053435;28;20074;-73
2023/01/27 09:03:16;;;;;;;30.38;17.77;;;2.50;99.90;;;;;;5053367;28;20108;-73
2023/01/27 09:05:42;;;;;;;30.55;19.25;;;2.50;99.90;;;;;;5052111;28;20425;-73
2023/01/27 09:08:08;;;;;;;26.08;15.43;;;2.50;99.90;;;;;;5052809;28;20480;-73
2023/01/27 09:10:39;;;;;;;24.20;14.18;;;2.50;99.90;;;;;;5053047;28;20092;-74
2023/01/27 09:13:05;;;;;;;23.02;13.85;;;2.60;99.90;;;;;;5052896;28;20029;-73
2023/01/27 09:15:31;;;;;;;22.13;12.75;;;2.50;99.90;;;;;;5053457;28;20025;-74
2023/01/27 09:17:57;;;;;;;23.02;13.88;;;2.40;99.90;;;;;;5052877;28;20396;-73
2023/01/27 09:20:23;;;;;;;19.15;12.18;;;2.30;99.90;;;;;;5053090;28;20095;-73
2023/01/27 09:22:48;;;;;;;20.35;11.63;;;2.20;99.90;;;;;;5052718;28;20029;-74
2023/01/27 09:25:16;;;;;;;22.13;11.90;;;2.30;99.90;;;;;;5053161;28;20028;-73
2023/01/27 09:27:43;;;;;;;22.95;12.88;;;2.30;99.90;;;;;;5048283;28;20041;-73
2023/01/27 09:30:13;;;;;;;24.13;13.70;;;2.40;99.90;;;;;;5044634;28;20029;-73
2023/01/27 09:32:40;;;;;;;24.05;14.20;;;2.40;99.90;;;;;;5052760;28;20029;-73
2023/01/27 09:35:06;;;;;;;23.27;13.00;;;2.40;99.90;;;;;;5052375;28;20025;-73
2023/01/27 09:37:38;;;;;;;24.25;14.68;;;2.40;99.90;;;;;;5052794;28;20045;-73
2023/01/27 09:40:16;;;;;;;22.73;13.93;;;2.30;99.90;;;;;;5052537;28;20104;-73
2023/01/27 09:43:09;;;;;;;23.92;14.85;;;2.30;99.90;;;;;;5040805;28;20166;-73
2023/01/27 09:45:50;;;;;;;25.05;15.52;;;2.30;99.90;;;;;;5052635;28;20033;-73
2023/01/27 09:48:36;;;;;;;22.88;15.07;;;2.30;99.90;;;;;;5052218;28;20032;-73
2023/01/27 09:51:13;;;;;;;24.38;15.13;;;2.30;99.90;;;;;;5052030;28;20052;-73
2023/01/27 09:53:42;;;;;;;24.42;14.00;;;2.20;99.90;;;;;;5052335;28;20488;-73
2023/01/27 09:56:19;;;;;;;22.52;13.75;;;2.20;99.90;;;;;;5049638;28;20040;-74
2023/01/27 09:59:03;;;;;;;24.83;14.75;;;2.20;99.90;;;;;;5044129;28;20086;-74
2023/01/27 10:02:06;;;;;;;23.30;14.65;;;2.20;99.90;;;;;;5052361;28;20025;-73
2023/01/27 10:04:55;;;;;;;25.02;14.75;;;2.20;99.90;;;;;;5049507;28;20025;-73
2023/01/27 10:07:46;;;;;;;24.50;14.75;;;2.20;99.90;;;;;;5049443;28;20031;-73
2023/01/27 10:10:32;;;;;;;25.13;16.13;;;2.20;99.90;;;;;;5042434;28;20017;-74
2023/01/27 10:13:07;;;;;;;23.88;16.13;;;2.10;99.90;;;;;;5046790;28;20035;-74
2023/01/27 10:16:12;;;;;;;23.60;14.55;;;2.10;99.90;;;;;;5052206;28;20029;-74
2023/01/27 10:18:52;;;;;;;25.77;15.75;;;2.10;99.90;;;;;;4983933;28;20050;-74
2023/01/27 10:21:29;;;;;;;26.98;16.40;;;2.10;99.90;;;;;;4986455;28;20059;-73
2023/01/27 10:24:25;;;;;;;26.80;15.50;;;2.10;99.90;;;;;;4991365;28;20030;-73
2023/01/27 10:27:06;;;;;;;27.42;16.80;;;2.10;99.90;;;;;;4985941;28;20537;-73
2023/01/27 10:29:43;;;;;;;31.25;18.90;;;2.20;99.90;;;;;;4989268;28;20033;-74
2023/01/27 10:32:23;;;;;;;29.20;16.83;;;2.20;99.90;;;;;;4990257;28;20022;-73
2023/01/27 10:35:30;;;;;;;32.05;19.30;;;2.10;99.90;;;;;;4989034;28;20049;-74
2023/01/27 10:38:19;;;;;;;30.27;18.90;;;2.10;99.90;;;;;;4932185;29;20598;-74
2023/01/27 10:41:22;;;;;;;32.03;18.70;;;2.10;99.90;;;;;;4876227;29;20472;-74
2023/01/27 10:44:03;;;;;;;27.00;17.25;;;2.20;99.90;;;;;;4874921;29;20044;-73
2023/01/27 10:46:41;;;;;;;27.75;17.77;;;2.20;99.90;;;;;;4880618;29;20040;-73
2023/01/27 10:49:43;;;;;;;25.60;15.70;;;2.30;99.90;;;;;;4878269;29;20072;-73
2023/01/27 10:52:23;;;;;;;30.70;16.83;;;2.10;99.90;;;;;;4817328;29;20044;-74
2023/01/27 10:55:01;;;;;;;28.40;17.00;;;2.10;99.90;;;;;;4851871;29;20049;-74
2023/01/27 10:57:32;;;;;;;25.83;15.85;;;2.10;99.90;;;;;;4856249;29;20053;-73
2023/01/27 11:00:05;;;;;;;30.20;18.35;;;2.10;99.90;;;;;;4856062;29;20060;-73
2023/01/27 11:02:34;;;;;;;31.35;17.63;;;2.10;99.90;;;;;;4855442;29;20056;-74
2023/01/27 11:05:04;;;;;;;27.63;18.00;;;2.10;99.90;;;;;;4855102;29;20040;-74
2023/01/27 11:07:32;;;;;;;30.63;17.60;;;2.20;99.90;;;;;;4853358;29;20050;-74
2023/01/27 11:10:02;;;;;;;31.05;19.30;;;2.20;99.90;;;;;;4893204;29;20040;-73
2023/01/27 11:12:43;;;;;;;29.25;18.50;;;2.10;99.90;;;;;;4911210;29;20040;-73
2023/01/27 11:15:23;;;;;;;28.10;17.02;;;2.20;99.90;;;;;;4918876;29;20043;-74
2023/01/27 11:17:59;;;;;;;29.63;18.92;;;2.20;99.90;;;;;;4945980;28;20051;-73
2023/01/27 11:20:48;;;;;;;31.05;18.30;;;2.20;99.90;;;;;;4962938;28;20566;-73
2023/01/27 11:23:20;;;;;;;32.47;20.25;;;2.30;99.90;;;;;;4981326;28;20034;-73
2023/01/27 11:25:56;;;;;;;29.38;17.95;;;2.30;99.90;;;;;;4974105;28;20031;-73
2023/01/27 11:28:46;;;;;;;26.75;16.45;;;2.30;99.90;;;;;;5037317;28;20084;-73
2023/01/27 11:31:21;;;;;;;29.88;18.27;;;2.30;99.90;;;;;;5060209;28;20367;-74
2023/01/27 11:33:56;;;;;;;28.58;18.05;;;2.30;99.90;;;;;;5055065;28;20096;-73
2023/01/27 11:36:25;;;;;;;29.98;17.50;;;2.30;99.90;;;;;;5050852;28;20021;-73
2023/01/27 11:38:54;;;;;;;27.83;17.38;;;2.30;99.90;;;;;;5034446;28;20366;-73
2023/01/27 11:41:20;;;;;;;28.88;17.70;;;2.20;99.90;;;;;;5043571;28;20119;-73
2023/01/27 11:43:47;;;;;;;26.23;16.27;;;2.20;99.90;;;;;;5038051;28;20492;-72
2023/01/27 11:46:18;;;;;;;32.97;20.50;;;2.30;99.90;;;;;;5035847;28;20365;-72
2023/01/27 11:48:51;;;;;;;31.17;19.13;;;2.30;99.90;;;;;;5042628;28;20052;-72
2023/01/27 11:51:38;;;;;;;33.13;20.95;;;2.40;99.90;;;;;;5054586;28;20029;-72
2023/01/27 11:54:26;;;;;;;34.03;19.40;;;2.40;99.90;;;;;;5051507;28;20484;-73
2023/01/27 11:56:53;;;;;;;29.00;17.85;;;2.40;99.90;;;;;;5054412;28;20100;-72
2023/01/27 11:59:40;;;;;;;28.60;18.40;;;2.30;99.90;;;;;;5055129;28;20060;-72
2023/01/27 12:02:06;;;;;;;31.85;19.85;;;2.30;99.90;;;;;;5052867;28;20061;-75
2023/01/27 12:05:02;;;;;;;28.50;17.95;;;2.40;99.90;;;;;;5032963;28;20099;-73
2023/01/27 12:07:38;;;;;;;30.35;19.73;;;2.40;99.90;;;;;;5033126;28;20535;-72
2023/01/27 12:10:22;;;;;;;28.88;19.10;;;2.40;99.90;;;;;;5054207;28;20031;-72
2023/01/27 12:12:48;;;;;;;31.75;20.58;;;2.40;99.90;;;;;;5033176;28;20488;-73
2023/01/27 12:15:16;;;;;;;35.95;22.50;;;2.40;99.90;;;;;;5033194;28;20049;-72
2023/01/27 12:17:52;;;;;;;34.25;23.15;;;2.50;99.90;;;;;;5040175;28;20037;-72
2023/01/27 12:20:21;;;;;;;33.10;21.40;;;2.50;99.90;;;;;;5034507;28;20103;-72
2023/01/27 12:22:51;;;;;;;31.85;21.08;;;2.30;99.90;;;;;;5033040;28;20079;-72
2023/01/27 12:25:28;;;;;;;32.00;19.85;;;2.30;99.90;;;;;;5036631;28;20083;-72
2023/01/27 12:28:03;;;;;;;34.67;21.80;;;2.20;99.90;;;;;;5033384;28;20053;-72
2023/01/27 12:30:35;;;;;;;34.97;21.70;;;2.20;99.90;;;;;;5048383;28;20029;-72
2023/01/27 12:33:12;;;;;;;37.70;21.85;;;2.10;99.90;;;;;;5053977;28;20037;-72
2023/01/27 12:35:39;;;;;;;33.80;21.65;;;2.10;99.90;;;;;;5053755;28;20021;-72
2023/01/27 12:38:17;;;;;;;37.40;23.25;;;2.10;99.90;;;;;;5053495;28;20040;-72
2023/01/27 12:40:45;;;;;;;40.03;23.95;;;2.00;99.90;;;;;;5041343;28;20032;-72
2023/01/27 12:43:17;;;;;;;36.97;22.48;;;2.00;99.90;;;;;;5066450;28;20380;-72
2023/01/27 12:45:44;;;;;;;38.63;24.10;;;2.00;99.90;;;;;;5053960;28;20025;-72
2023/01/27 12:48:12;;;;;;;36.70;22.45;;;2.00;99.90;;;;;;5048945;28;20079;-73
2023/01/27 12:50:52;;;;;;;38.15;23.40;;;2.00;99.90;;;;;;5053366;28;20048;-72
2023/01/27 12:53:26;;;;;;;40.47;23.30;;;1.90;99.90;;;;;;5052186;28;20024;-72
2023/01/27 12:55:57;;;;;;;39.95;25.83;;;2.00;99.90;;;;;;5053856;28;20424;-72
2023/01/27 12:58:30;;;;;;;37.10;23.23;;;2.00;99.90;;;;;;5053150;28;20041;-72
2023/01/27 13:00:59;;;;;;;38.03;25.60;;;2.00;99.90;;;;;;5052511;28;20032;-72
2023/01/27 13:03:26;;;;;;;40.63;25.98;;;1.90;99.90;;;;;;5052877;28;20112;-72
2023/01/27 13:05:55;;;;;;;35.65;23.70;;;1.90;99.90;;;;;;5047958;28;20469;-73
2023/01/27 13:08:24;;;;;;;35.83;24.55;;;1.80;99.90;;;;;;5045822;28;20506;-73
2023/01/27 13:11:01;;;;;;;43.08;24.15;;;1.80;99.90;;;;;;5052971;28;20033;-72
2023/01/27 13:13:29;;;;;;;37.72;24.38;;;1.70;99.90;;;;;;5052709;28;20048;-72
2023/01/27 13:15:59;;;;;;;35.58;23.17;;;1.80;99.90;;;;;;5052915;28;20021;-72
2023/01/27 13:18:31;;;;;;;37.67;24.48;;;1.90;99.90;;;;;;5052683;28;20068;-72